createdAt,value
2019-04-20T00:00:04.875Z,102344.06
2019-04-20T00:00:19.951Z,102343.59
2019-04-20T00:00:42.871Z,102340.82
2019-04-20T00:00:58.464Z,102344.57
2019-04-20T00:01:18.560Z,102343.1
2019-04-20T00:01:35.959Z,102344.27
2019-04-20T00:01:56.984Z,102340.2
2019-04-20T00:02:16.174Z,102344.25
2019-04-20T00:02:30.371Z,102345.09
2019-04-20T00:02:52.228Z,102341.65
2019-04-20T00:03:06.342Z,102341.84
2019-04-20T00:03:30.778Z,102338.57
2019-04-20T00:03:45.434Z,102344.93
2019-04-20T00:04:01.933Z,102342.5
2019-04-20T00:04:25.497Z,102342
2019-04-20T00:04:39.894Z,102339.93
2019-04-20T00:04:57.865Z,102341.18
2019-04-20T00:05:15.849Z,102342.19
2019-04-20T00:05:33.827Z,102339.45
2019-04-20T00:05:51.835Z,102341.21
2019-04-20T00:06:09.845Z,102336.18
2019-04-20T00:06:31.570Z,102338.79
2019-04-20T00:06:50.057Z,102340.42
2019-04-20T00:07:04.758Z,102337.51
2019-04-20T00:07:26.975Z,102342.05
2019-04-20T00:07:42.727Z,102341.92
2019-04-20T00:08:08.726Z,102338.68
2019-04-20T00:08:24.942Z,102340.78
2019-04-20T00:08:41.432Z,102342.89
2019-04-20T00:09:04.616Z,102338.65
2019-04-20T00:09:22.864Z,102337.86
2019-04-20T00:09:38.649Z,102337.7
2019-04-20T00:10:03.054Z,102339.33
2019-04-20T00:10:18.281Z,102337.89
2019-04-20T00:10:42.409Z,102338.05
2019-04-20T00:11:00.090Z,102341.64
2019-04-20T00:11:18.402Z,102339.49
2019-04-20T00:11:40.818Z,102336.82
2019-04-20T00:11:59.681Z,102339.04
2019-04-20T00:12:15.439Z,102337.25
2019-04-20T00:12:36.407Z,102342.95
2019-04-20T00:12:58.107Z,102339.26
2019-04-20T00:13:15.811Z,102341.53
2019-04-20T00:13:35.461Z,102339.09
2019-04-20T00:13:52.473Z,102337.69
2019-04-20T00:14:08.888Z,102337.53
2019-04-20T00:14:26.043Z,102338.79
2019-04-20T00:14:41.156Z,102336.06
2019-04-20T00:14:59.459Z,102335.95
2019-04-20T00:15:18.466Z,102337.25
2019-04-20T00:15:37.621Z,102340.51
2019-04-20T00:15:56.565Z,102337.6
2019-04-20T00:16:15.567Z,102339.56
2019-04-20T00:16:34.515Z,102336.61
2019-04-20T00:16:53.506Z,102337.95
2019-04-20T00:17:12.512Z,102337.15
2019-04-20T00:17:31.512Z,102336.65
2019-04-20T00:17:53.789Z,102334.54
2019-04-20T00:18:10.468Z,102338.12
2019-04-20T00:18:34.278Z,102337.2
2019-04-20T00:18:51.863Z,102333
2019-04-20T00:19:07.519Z,102335.12
2019-04-20T00:19:34.285Z,102333.35
2019-04-20T00:19:48.972Z,102333.67
2019-04-20T00:20:11.580Z,102336.93
2019-04-20T00:20:27.810Z,102332.23
2019-04-20T00:20:42.546Z,102332.46
2019-04-20T00:21:05.442Z,102332.63
2019-04-20T00:21:21.442Z,102334.58
2019-04-20T00:21:46.866Z,102332.78
2019-04-20T00:22:03.333Z,102334.78
2019-04-20T00:22:18.711Z,102332.33
2019-04-20T00:22:42.439Z,102334.95
2019-04-20T00:22:56.850Z,102335.43
2019-04-20T00:23:22.540Z,102330.29
2019-04-20T00:23:38.250Z,102334.34
2019-04-20T00:23:53.496Z,102332.92
2019-04-20T00:24:16.374Z,102334.06
2019-04-20T00:24:34.360Z,102336.85
2019-04-20T00:24:56.675Z,102335.89
2019-04-20T00:25:14.016Z,102331.35
2019-04-20T00:25:41.564Z,102335.57
2019-04-20T00:25:59.037Z,102329.28
2019-04-20T00:26:14.568Z,102329.6
2019-04-20T00:26:52.884Z,102333.18
2019-04-20T00:27:08.327Z,102329.98
2019-04-20T00:27:25.238Z,102327.9
2019-04-20T00:27:42.579Z,102332.46
2019-04-20T00:27:59.224Z,102331.82
2019-04-20T00:28:19.353Z,102329.72
2019-04-20T00:28:34.998Z,102328.76
2019-04-20T00:28:55.715Z,102332.97
2019-04-20T00:29:17.160Z,102333.15
2019-04-20T00:29:34.981Z,102329.4
2019-04-20T00:29:49.239Z,102338.37
2019-04-20T00:30:06.449Z,102334.96
2019-04-20T00:30:31.289Z,102329
2019-04-20T00:30:52.816Z,102332.42
2019-04-20T00:31:09.011Z,102331.98
2019-04-20T00:31:26.603Z,102330.17
2019-04-20T00:31:59.039Z,102334.14
2019-04-20T00:32:17.139Z,102334
2019-04-20T00:32:41.108Z,102333.03
2019-04-20T00:32:55.412Z,102332.87
2019-04-20T00:33:12.487Z,102328.34
2019-04-20T00:33:36.756Z,102331.75
2019-04-20T00:33:52.634Z,102327.4
2019-04-20T00:34:08.855Z,102329.39
2019-04-20T00:34:25.496Z,102329.4
2019-04-20T00:34:42.255Z,102330.39
2019-04-20T00:34:58.761Z,102327.76
2019-04-20T00:35:17.673Z,102327
2019-04-20T00:35:36.783Z,102329.76
2019-04-20T00:35:55.766Z,102329.5
2019-04-20T00:36:14.708Z,102329.6
2019-04-20T00:36:33.743Z,102329.83
2019-04-20T00:36:52.696Z,102329.85
2019-04-20T00:37:11.658Z,102330.5
2019-04-20T00:37:30.670Z,102330.01
2019-04-20T00:37:49.656Z,102326.5
2019-04-20T00:38:08.587Z,102324.37
2019-04-20T00:38:34.941Z,102328
2019-04-20T00:38:51.918Z,102324.92
2019-04-20T00:39:08.044Z,102326.23
2019-04-20T00:39:24.515Z,102324.14
2019-04-20T00:39:43.480Z,102325.78
2019-04-20T00:40:02.519Z,102328.06
2019-04-20T00:40:22.425Z,102322.89
2019-04-20T00:40:42.201Z,102324.84
2019-04-20T00:41:05.536Z,102323.9
2019-04-20T00:41:21.055Z,102326.51
2019-04-20T00:41:42.197Z,102321.79
2019-04-20T00:42:02.258Z,102328.35
2019-04-20T00:42:18.371Z,102323
2019-04-20T00:42:42.147Z,102324.3
2019-04-20T00:42:56.775Z,102323.01
2019-04-20T00:43:20.821Z,102324.66
2019-04-20T00:43:36.069Z,102323.35
2019-04-20T00:43:52.033Z,102326.28
2019-04-20T00:44:16.938Z,102325.98
2019-04-20T00:44:34.006Z,102322.98
2019-04-20T00:44:56.152Z,102318.1
2019-04-20T00:45:11.871Z,102323.13
2019-04-20T00:45:30.497Z,102322.67
2019-04-20T00:45:53.541Z,102321.68
2019-04-20T00:46:07.834Z,102321.07
2019-04-20T00:46:29.113Z,102323.04
2019-04-20T00:46:55.443Z,102325.31
2019-04-20T00:47:11.910Z,102325.35
2019-04-20T00:47:47.604Z,102321.48
2019-04-20T00:48:03.163Z,102325.2
2019-04-20T00:48:25.695Z,102326.53
2019-04-20T00:48:47.151Z,102320.87
2019-04-20T00:49:04.688Z,102323.51
2019-04-20T00:49:30.299Z,102323.03
2019-04-20T00:49:48.044Z,102322.21
2019-04-20T00:50:05.394Z,102326.92
2019-04-20T00:50:28.053Z,102322.74
2019-04-20T00:50:44.268Z,102321.6
2019-04-20T00:51:03.384Z,102325.04
2019-04-20T00:51:23.722Z,102321.8
2019-04-20T00:51:44.708Z,102320.35
2019-04-20T00:52:12.329Z,102319.23
2019-04-20T00:52:39.823Z,102319.78
2019-04-20T00:52:53.873Z,102321.75
2019-04-20T00:53:13.201Z,102318.68
2019-04-20T00:53:29.064Z,102321.78
2019-04-20T00:53:44.755Z,102315.33
2019-04-20T00:54:00.806Z,102319.07
2019-04-20T00:54:18.819Z,102322
2019-04-20T00:54:37.773Z,102322.65
2019-04-20T00:54:56.800Z,102319.76
2019-04-20T00:55:15.710Z,102322.36
2019-04-20T00:55:34.804Z,102320.92
2019-04-20T00:55:53.789Z,102321.89
2019-04-20T00:56:12.785Z,102324.33
2019-04-20T00:56:31.737Z,102321.11
2019-04-20T00:56:50.732Z,102325.32
2019-04-20T00:57:20.066Z,102321.3
2019-04-20T00:57:36.726Z,102322.93
2019-04-20T00:57:53.346Z,102319.21
2019-04-20T00:58:15.987Z,102324.9
2019-04-20T00:58:31.438Z,102325.58
2019-04-20T00:58:55.678Z,102319.09
2019-04-20T00:59:16.650Z,102319.46
2019-04-20T00:59:35.171Z,102323.67
2019-04-20T00:59:58.892Z,102323.53
2019-04-20T01:00:16.243Z,102325.46
2019-04-20T01:00:36.747Z,102322.87
2019-04-20T01:01:03.642Z,102322.87
2019-04-20T01:01:12.624Z,102323.04
2019-04-20T01:01:35.699Z,102327.64
2019-04-20T01:01:51.722Z,102322.79
2019-04-20T01:02:12.458Z,102320.85
2019-04-20T01:02:25.554Z,102325.26
2019-04-20T01:02:43.208Z,102322.84
2019-04-20T01:03:09.418Z,102327.21
2019-04-20T01:03:27.535Z,102324.31
2019-04-20T01:03:42.193Z,102324.13
2019-04-20T01:04:10.237Z,102319.92
2019-04-20T01:04:23.667Z,102324.79
2019-04-20T01:04:47.379Z,102325.29
2019-04-20T01:05:03.829Z,102325.47
2019-04-20T01:05:17.775Z,102327.61
2019-04-20T01:05:46.186Z,102327.3
2019-04-20T01:05:58.008Z,102324.39
2019-04-20T01:06:21.980Z,102325.04
2019-04-20T01:06:36.475Z,102326.2
2019-04-20T01:06:53.320Z,102326.7
2019-04-20T01:07:12.191Z,102329.3
2019-04-20T01:07:29.651Z,102323.65
2019-04-20T01:07:44.767Z,102324.79
2019-04-20T01:08:00.490Z,102329.51
2019-04-20T01:08:15.831Z,102329.22
2019-04-20T01:08:34.812Z,102325.98
2019-04-20T01:08:53.838Z,102327.45
2019-04-20T01:09:12.792Z,102326.96
2019-04-20T01:09:31.813Z,102325.73
2019-04-20T01:09:50.814Z,102325.22
2019-04-20T01:10:09.795Z,102326.87
2019-04-20T01:10:35.266Z,102324.92
2019-04-20T01:10:51.270Z,102327.51
2019-04-20T01:11:06.989Z,102324.79
2019-04-20T01:11:30.760Z,102325.11
2019-04-20T01:11:46.702Z,102324.53
2019-04-20T01:12:09.901Z,102326.96
2019-04-20T01:12:26.701Z,102325.35
2019-04-20T01:12:42.707Z,102325.18
2019-04-20T01:13:06.482Z,102323.25
2019-04-20T01:13:20.835Z,102324.87
2019-04-20T01:13:45.699Z,102327.33
2019-04-20T01:14:02.808Z,102323.98
2019-04-20T01:14:19.049Z,102326.1
2019-04-20T01:14:43.265Z,102326.12
2019-04-20T01:14:59.067Z,102325.95
2019-04-20T01:15:24.278Z,102326.32
2019-04-20T01:15:42.639Z,102326.17
2019-04-20T01:15:58.666Z,102330.07
2019-04-20T01:16:21.266Z,102327.17
2019-04-20T01:16:38.444Z,102333.51
2019-04-20T01:16:54.352Z,102328.82
2019-04-20T01:20:41.930Z,102328.96
2019-04-20T01:21:06.336Z,102327.35
2019-04-20T01:21:23.505Z,102331.76
2019-04-20T01:21:42.925Z,102332.25
2019-04-20T01:22:02.226Z,102332.1
2019-04-20T01:22:20.513Z,102330.63
2019-04-20T01:22:44.225Z,102327.1
2019-04-20T01:23:01.761Z,102331.65
2019-04-20T01:23:17.783Z,102330.2
2019-04-20T01:23:39.973Z,102329.74
2019-04-20T01:23:56.499Z,102331.84
2019-04-20T01:24:15.043Z,102326.51
2019-04-20T01:24:35.279Z,102327.46
2019-04-20T01:24:50.305Z,102327.64
2019-04-20T01:25:13.720Z,102329.48
2019-04-20T01:25:32.075Z,102327.87
2019-04-20T01:25:47.395Z,102329.65
2019-04-20T01:26:09.202Z,102331.95
2019-04-20T01:26:24.726Z,102330.96
2019-04-20T01:26:48.735Z,102326.59
2019-04-20T01:27:04.063Z,102333.57
2019-04-20T01:27:31.988Z,102332.1
2019-04-20T01:27:58.753Z,102328.39
2019-04-20T01:28:11.512Z,102330.96
2019-04-20T01:28:30.888Z,102331.29
2019-04-20T01:28:50.979Z,102333.25
2019-04-20T01:29:08.452Z,102328.9
2019-04-20T01:29:24.892Z,102330.07
2019-04-20T01:29:41.005Z,102330.56
2019-04-20T01:30:03.241Z,102330.71
2019-04-20T01:30:20.440Z,102328.46
2019-04-20T01:30:37.466Z,102329.12
2019-04-20T01:30:59.854Z,102332.03
2019-04-20T01:31:18.322Z,102333.01
2019-04-20T01:31:36.074Z,102331.24
2019-04-20T01:32:00.625Z,102330.14
2019-04-20T01:32:14.885Z,102331.77
2019-04-20T01:32:34.138Z,102333.85
2019-04-20T01:33:03.337Z,102328.85
2019-04-20T01:33:15.874Z,102332.26
2019-04-20T01:33:31.556Z,102332.59
2019-04-20T01:33:49.079Z,102330.17
2019-04-20T01:34:08.127Z,102330.17
2019-04-20T01:34:30.903Z,102329.55
2019-04-20T01:34:44.954Z,102327
2019-04-20T01:35:07.009Z,102332.15
2019-04-20T01:35:29.906Z,102331.71
2019-04-20T01:35:48.714Z,102338.64
2019-04-20T01:36:11.294Z,102331.87
2019-04-20T01:36:30.613Z,102333.03
2019-04-20T01:36:50.212Z,102336.42
2019-04-20T01:37:04.213Z,102336.92
2019-04-20T01:37:20.712Z,102332.54
2019-04-20T01:37:38.268Z,102333.35
2019-04-20T01:38:06.666Z,102334.01
2019-04-20T01:38:20.757Z,102333.03
2019-04-20T01:38:39.760Z,102330.27
2019-04-20T01:38:58.579Z,102334.83
2019-04-20T01:39:13.460Z,102330.17
2019-04-20T01:39:31.591Z,102334.71
2019-04-20T01:39:46.607Z,102334.87
2019-04-20T01:40:02.946Z,102339.93
2019-04-20T01:40:19.863Z,102338.62
2019-04-20T01:40:38.951Z,102335.56
2019-04-20T01:40:57.904Z,102334.76
2019-04-20T01:41:16.977Z,102340.59
2019-04-20T01:41:35.922Z,102336.38
2019-04-20T01:41:54.933Z,102337.21
2019-04-20T01:42:13.849Z,102336.7
2019-04-20T01:42:32.916Z,102335.93
2019-04-20T01:42:51.934Z,102333.35
2019-04-20T01:43:10.928Z,102334.18
2019-04-20T01:43:29.944Z,102337.92
2019-04-20T01:43:48.943Z,102336.62
2019-04-20T01:44:07.926Z,102331.43
2019-04-20T01:44:33.120Z,102333.89
2019-04-20T01:44:49.085Z,102339.06
2019-04-20T01:45:10.006Z,102334.35
2019-04-20T01:45:29.212Z,102333.4
2019-04-20T01:45:44.352Z,102334.71
2019-04-20T01:46:09.061Z,102334.9
2019-04-20T01:46:23.817Z,102336.37
2019-04-20T01:46:46.495Z,102335.71
2019-04-20T01:47:01.968Z,102334.12
2019-04-20T01:47:17.864Z,102335.57
2019-04-20T01:47:42.034Z,102340.93
2019-04-20T01:47:58.190Z,102336.23
2019-04-20T01:48:21.703Z,102333.17
2019-04-20T01:48:37.090Z,102334.82
2019-04-20T01:48:53.518Z,102333.69
2019-04-20T01:49:18.121Z,102335.63
2019-04-20T01:49:33.868Z,102333.39
2019-04-20T01:49:57.385Z,102335.33
2019-04-20T01:50:14.035Z,102337.12
2019-04-20T01:50:31.865Z,102336.64
2019-04-20T01:50:54.607Z,102333.29
2019-04-20T01:51:13.968Z,102333.93
2019-04-20T01:51:30.401Z,102332.95
2019-04-20T01:51:52.334Z,102337.04
2019-04-20T01:52:12.584Z,102333.93
2019-04-20T01:52:28.529Z,102336.87
2019-04-20T01:52:53.739Z,102336.23
2019-04-20T01:53:12.255Z,102334.94
2019-04-20T01:53:26.788Z,102336.9
2019-04-20T01:53:50.181Z,102336.94
2019-04-20T01:54:11.602Z,102335.34
2019-04-20T01:54:31.009Z,102335.82
2019-04-20T01:54:56.189Z,102336.48
2019-04-20T01:55:15.570Z,102335.5
2019-04-20T01:55:32.759Z,102334.85
2019-04-20T01:56:00.959Z,102336.67
2019-04-20T01:56:07.017Z,102334.6
2019-04-20T01:56:21.592Z,102338
2019-04-20T01:56:43.307Z,102336.71
2019-04-20T01:56:57.914Z,102338.35
2019-04-20T01:57:15.428Z,102337.37
2019-04-20T01:57:32.693Z,102339.47
2019-04-20T01:58:04.719Z,102337.37
2019-04-20T01:58:23.546Z,102336.75
2019-04-20T01:58:39.323Z,102334.21
2019-04-20T01:58:58.036Z,102335.33
2019-04-20T01:59:15.655Z,102335.34
2019-04-20T01:59:34.347Z,102336.15
2019-04-20T01:59:51.171Z,102338.93
2019-04-20T02:00:05.921Z,102339.25
2019-04-20T02:00:25.191Z,102338.48
2019-04-20T02:00:40.510Z,102335.57
2019-04-20T02:00:57.877Z,102335.75
2019-04-20T02:01:20.934Z,102340.12
2019-04-20T02:01:37.957Z,102337.67
2019-04-20T02:01:59.013Z,102335.57
2019-04-20T02:02:16.377Z,102334.96
2019-04-20T02:02:35.193Z,102338.04
2019-04-20T02:02:55.406Z,102338.21
2019-04-20T02:03:10.190Z,102336.78
2019-04-20T02:03:33.934Z,102339.51
2019-04-20T02:03:50.753Z,102339.86
2019-04-20T02:04:07.147Z,102336.93
2019-04-20T02:04:30.698Z,102340.85
2019-04-20T02:04:47.249Z,102340.84
2019-04-20T02:05:08.665Z,102338.44
2019-04-20T02:05:27.938Z,102336.32
2019-04-20T02:05:42.159Z,102340.57
2019-04-20T02:06:06.094Z,102340.07
2019-04-20T02:06:22.052Z,102340.07
2019-04-20T02:06:43.306Z,102340.26
2019-04-20T02:07:00.273Z,102337.68
2019-04-20T02:07:18.060Z,102339.31
2019-04-20T02:07:40.339Z,102339.46
2019-04-20T02:07:55.794Z,102339
2019-04-20T02:08:18.241Z,102341.92
2019-04-20T02:08:32.969Z,102343.21
2019-04-20T02:08:57.247Z,102340.46
2019-04-20T02:09:15.601Z,102340.79
2019-04-20T02:09:31.100Z,102341.12
2019-04-20T02:09:53.321Z,102341.5
2019-04-20T02:10:10.362Z,102342.46
2019-04-20T02:10:34.629Z,102338.24
2019-04-20T02:10:50.573Z,102341.65
2019-04-20T02:11:06.128Z,102340.7
2019-04-20T02:11:29.350Z,102340.35
2019-04-20T02:11:45.085Z,102344.75
2019-04-20T02:12:08.174Z,102340.85
2019-04-20T02:12:26.020Z,102345.55
2019-04-20T02:12:41.127Z,102344.75
2019-04-20T02:13:01.478Z,102343.46
2019-04-20T02:13:18.292Z,102343.64
2019-04-20T02:13:44.285Z,102344.93
2019-04-20T02:14:00.188Z,102339.3
2019-04-20T02:14:24.086Z,102344
2019-04-20T02:14:40.898Z,102343.85
2019-04-20T02:14:57.474Z,102347.68
2019-04-20T02:15:19.669Z,102343.35
2019-04-20T02:15:38.487Z,102344.67
2019-04-20T02:15:54.368Z,102345.79
2019-04-20T02:16:15.663Z,102344.53
2019-04-20T02:16:35.326Z,102341.75
2019-04-20T02:16:51.289Z,102347.59
2019-04-20T02:17:16.625Z,102343.53
2019-04-20T02:17:31.791Z,102348.08
2019-04-20T02:17:59.251Z,102345.5
2019-04-20T02:18:17.415Z,102343.59
2019-04-20T02:18:31.670Z,102345.71
2019-04-20T02:18:58.409Z,102347.64
2019-04-20T02:19:13.005Z,102347.32
2019-04-20T02:19:34.316Z,102347
2019-04-20T02:19:59.641Z,102342.79
2019-04-20T02:20:15.431Z,102342.49
2019-04-20T02:20:37.296Z,102348.15
2019-04-20T02:20:54.094Z,102342.98
2019-04-20T02:21:09.234Z,102346.06
2019-04-20T02:21:27.285Z,102344.12
2019-04-20T02:21:46.522Z,102344.46
2019-04-20T02:22:06.075Z,102345.13
2019-04-20T02:22:29.684Z,102346.57
2019-04-20T02:22:46.153Z,102346.6
2019-04-20T02:23:03.015Z,102345.14
2019-04-20T02:23:20.835Z,102346.75
2019-04-20T02:23:35.600Z,102347.25
2019-04-20T02:23:52.996Z,102345.46
2019-04-20T02:24:07.837Z,102344.34
2019-04-20T02:24:24.490Z,102347.09
2019-04-20T02:24:43.545Z,102344.67
2019-04-20T02:25:02.564Z,102348.1
2019-04-20T02:25:21.506Z,102346
2019-04-20T02:25:40.668Z,102346.99
2019-04-20T02:25:59.672Z,102342.93
2019-04-20T02:26:18.633Z,102342.46
2019-04-20T02:26:37.611Z,102342.29
2019-04-20T02:26:56.599Z,102347.67
2019-04-20T02:27:19.595Z,102345.23
2019-04-20T02:27:41.515Z,102344.31
2019-04-20T02:28:01.657Z,102344.62
2019-04-20T02:28:25.462Z,102339.94
2019-04-20T02:28:53.436Z,102340.59
2019-04-20T02:29:23.454Z,102341.54
2019-04-20T02:29:50.082Z,102342.37
2019-04-20T02:30:13.126Z,102345.93
2019-04-20T02:30:37.901Z,102343.51
2019-04-20T02:31:22.794Z,102342.7
2019-04-20T02:31:40.555Z,102342.92
2019-04-20T02:32:04.581Z,102342.87
2019-04-20T02:32:15.167Z,102349.08
2019-04-20T02:32:44.969Z,102344.87
2019-04-20T02:32:54.966Z,102343.57
2019-04-20T02:33:16.412Z,102343.89
2019-04-20T02:33:46.851Z,102343.4
2019-04-20T02:34:03.292Z,102342.13
2019-04-20T02:34:31.354Z,102344.71
2019-04-20T02:34:47.491Z,102345.42
2019-04-20T02:35:07.009Z,102345.87
2019-04-20T02:35:23.731Z,102346.71
2019-04-20T02:35:42.378Z,102343.15
2019-04-20T02:36:27.233Z,102348.2
2019-04-20T02:37:07.479Z,102344.62
2019-04-20T02:37:48.461Z,102341.23
2019-04-20T02:38:21.394Z,102344.63
2019-04-20T02:38:48.579Z,102342.26
2019-04-20T02:39:11.408Z,102346.62
2019-04-20T02:39:37.318Z,102340.65
2019-04-20T02:39:50.676Z,102342.59
2019-04-20T02:40:08.457Z,102343.89
2019-04-20T02:40:38.526Z,102344.21
2019-04-20T02:40:50.155Z,102347.92
2019-04-20T02:41:27.366Z,102345.23
2019-04-20T02:41:57.090Z,102345.07
2019-04-20T02:42:07.661Z,102345.73
2019-04-20T02:42:22.300Z,102343.6
2019-04-20T02:43:14.567Z,102346.21
2019-04-20T02:43:24.681Z,102348.96
2019-04-20T02:43:46.289Z,102344.14
2019-04-20T02:44:05.740Z,102349.47
2019-04-20T02:44:21.179Z,102348.35
2019-04-20T02:44:40.210Z,102350.76
2019-04-20T02:44:58.479Z,102345.57
2019-04-20T02:45:23.716Z,102347.84
2019-04-20T02:46:05.778Z,102346.26
2019-04-20T02:46:30.951Z,102346.28
2019-04-20T02:46:55.126Z,102345.78
2019-04-20T02:47:29.945Z,102343.85
2019-04-20T02:47:45.296Z,102344.5
2019-04-20T02:48:21.455Z,102341.12
2019-04-20T02:48:39.155Z,102342.73
2019-04-20T02:49:09.736Z,102343.21
2019-04-20T02:49:28.938Z,102347.28
2019-04-20T02:49:39.982Z,102340.78
2019-04-20T02:49:56.255Z,102345.79
2019-04-20T02:50:35.939Z,102346
2019-04-20T02:51:12.297Z,102343.56
2019-04-20T02:51:52.194Z,102346.96
2019-04-20T02:52:12.113Z,102345.04
2019-04-20T02:52:37.864Z,102345.53
2019-04-20T02:52:55.716Z,102344.89
2019-04-20T02:53:07.884Z,102344.89
2019-04-20T02:53:29.529Z,102347
2019-04-20T02:54:24.377Z,102342.64
2019-04-20T02:54:44.759Z,102343.45
2019-04-20T02:55:22.329Z,102343.28
2019-04-20T02:55:39.554Z,102342.2
2019-04-20T02:56:03.646Z,102346.05
2019-04-20T02:56:21.655Z,102346.56
2019-04-20T02:56:47.362Z,102340.56
2019-04-20T02:57:17.580Z,102347.21
2019-04-20T02:57:39.340Z,102346.56
2019-04-20T02:58:14.687Z,102348.35
2019-04-20T02:58:30.960Z,102349.84
2019-04-20T02:59:01.785Z,102348.53
2019-04-20T02:59:58.582Z,102346.15
2019-04-20T03:00:23.484Z,102345.84
2019-04-20T03:00:37.846Z,102350.7
2019-04-20T03:00:58.179Z,102347.28
2019-04-20T03:01:14.533Z,102347.45
2019-04-20T03:01:30.548Z,102349.07
2019-04-20T03:01:49.993Z,102349.25
2019-04-20T03:02:03.975Z,102349.08
2019-04-20T03:02:21.691Z,102346.5
2019-04-20T03:02:42.335Z,102347.01
2019-04-20T03:02:59.482Z,102343.29
2019-04-20T03:03:16.855Z,102345.71
2019-04-20T03:03:34.407Z,102342.01
2019-04-20T03:03:50.925Z,102348.32
2019-04-20T03:04:07.801Z,102341.68
2019-04-20T03:04:31.596Z,102343.48
2019-04-20T03:04:47.705Z,102345.74
2019-04-20T03:05:12.064Z,102345.26
2019-04-20T03:05:32.750Z,102345.25
2019-04-20T03:05:48.535Z,102345.72
2019-04-20T03:06:13.229Z,102341.36
2019-04-20T03:06:30.105Z,102344.26
2019-04-20T03:06:54.613Z,102343.78
2019-04-20T03:07:11.449Z,102343.46
2019-04-20T03:07:27.284Z,102344.76
2019-04-20T03:07:53.268Z,102343.15
2019-04-20T03:08:08.330Z,102344.15
2019-04-20T03:08:26.021Z,102346.07
2019-04-20T03:08:56.157Z,102345.3
2019-04-20T03:09:08.546Z,102341.73
2019-04-20T03:09:31.384Z,102341.73
2019-04-20T03:09:43.231Z,102345.29
2019-04-20T03:10:05.360Z,102344.17
2019-04-20T03:10:33.718Z,102346.12
2019-04-20T03:10:52.232Z,102341.57
2019-04-20T03:11:07.849Z,102343.54
2019-04-20T03:11:29.197Z,102342.87
2019-04-20T03:11:52.605Z,102341.91
2019-04-20T03:12:03.106Z,102343.68
2019-04-20T03:12:23.221Z,102342.06
2019-04-20T03:12:54.812Z,102345.15
2019-04-20T03:13:02.699Z,102340.6
2019-04-20T03:13:18.118Z,102341.31
2019-04-20T03:13:35.545Z,102338.71
2019-04-20T03:13:54.374Z,102340.34
2019-04-20T03:14:13.367Z,102339.37
2019-04-20T03:14:30.162Z,102341.96
2019-04-20T03:14:47.163Z,102340.5
2019-04-20T03:15:06.473Z,102339.55
2019-04-20T03:15:32.634Z,102341.15
2019-04-20T03:15:47.969Z,102343.11
2019-04-20T03:16:10.589Z,102341.65
2019-04-20T03:16:24.034Z,102346.01
2019-04-20T03:16:43.509Z,102342.31
2019-04-20T03:17:09.674Z,102344.72
2019-04-20T03:17:20.120Z,102345.04
2019-04-20T03:17:44.287Z,102345.22
2019-04-20T03:18:02.055Z,102343.6
2019-04-20T03:18:25.099Z,102339.53
2019-04-20T03:18:39.510Z,102341.99
2019-04-20T03:18:58.191Z,102340.68
2019-04-20T03:19:15.820Z,102337.95
2019-04-20T03:19:37.505Z,102343.14
2019-04-20T03:19:52.247Z,102341.35
2019-04-20T03:20:21.987Z,102342.5
2019-04-20T03:20:41.532Z,102339.09
2019-04-20T03:20:57.395Z,102339.09
2019-04-20T03:21:17.429Z,102342.84
2019-04-20T03:21:37.414Z,102335.7
2019-04-20T03:21:56.732Z,102341.21
2019-04-20T03:22:13.346Z,102336.35
2019-04-20T03:22:39.171Z,102339.26
2019-04-20T03:23:10.070Z,102342.85
2019-04-20T03:23:22.794Z,102338.81
2019-04-20T03:23:35.142Z,102339.78
2019-04-20T03:23:49.834Z,102340.09
2019-04-20T03:24:11.535Z,102340.78
2019-04-20T03:24:30.870Z,102338.18
2019-04-20T03:24:48.409Z,102339.17
2019-04-20T03:25:04.892Z,102336.73
2019-04-20T03:25:22.081Z,102340.14
2019-04-20T03:25:42.542Z,102337.07
2019-04-20T03:26:04.906Z,102341.92
2019-04-20T03:26:20.817Z,102341.78
2019-04-20T03:26:36.326Z,102343.54
2019-04-20T03:26:56.504Z,102342.07
2019-04-20T03:27:15.632Z,102340.15
2019-04-20T03:27:32.865Z,102341.92
2019-04-20T03:27:49.232Z,102341.12
2019-04-20T03:28:13.755Z,102339.21
2019-04-20T03:28:30.845Z,102339.68
2019-04-20T03:28:49.867Z,102341.96
2019-04-20T03:29:05.142Z,102341
2019-04-20T03:29:32.878Z,102337.43
2019-04-20T03:30:00.358Z,102339.54
2019-04-20T03:30:14.492Z,102340.7
2019-04-20T03:31:03.685Z,102341.15
2019-04-20T03:31:28.789Z,102339.07
2019-04-20T03:31:40.777Z,102338.25
2019-04-20T03:32:12.724Z,102335.84
2019-04-20T03:32:24.736Z,102338.43
2019-04-20T03:33:30.622Z,102340.25
2019-04-20T03:35:05.003Z,102341.87
2019-04-20T03:35:22.016Z,102340.26
2019-04-20T03:35:32.785Z,102341.71
2019-04-20T03:35:56.875Z,102338.98
2019-04-20T03:36:17.816Z,102342.2
2019-04-20T03:36:33.381Z,102341.06
2019-04-20T03:36:52.907Z,102343.37
2019-04-20T03:37:12.613Z,102342.25
2019-04-20T03:37:30.433Z,102340.46
2019-04-20T03:37:48.154Z,102341.58
2019-04-20T03:38:04.472Z,102342.89
2019-04-20T03:38:19.617Z,102341.9
2019-04-20T03:38:40.941Z,102344.01
2019-04-20T03:39:01.119Z,102341.58
2019-04-20T03:39:17.523Z,102342.73
2019-04-20T03:39:35.833Z,102343.69
2019-04-20T03:39:52.464Z,102344.03
2019-04-20T03:40:12.421Z,102343.87
2019-04-20T03:40:29.140Z,102343.07
2019-04-20T03:40:48.196Z,102346.82
2019-04-20T03:41:08.048Z,102345.32
2019-04-20T03:41:22.389Z,102341.79
2019-04-20T03:41:38.405Z,102344.55
2019-04-20T03:41:53.827Z,102344.57
2019-04-20T03:42:11.057Z,102348.14
2019-04-20T03:42:29.618Z,102346.84
2019-04-20T03:42:49.561Z,102346.5
2019-04-20T03:43:08.574Z,102346.52
2019-04-20T03:43:27.496Z,102347.47
2019-04-20T03:43:46.486Z,102346.51
2019-04-20T03:44:10.269Z,102348.78
2019-04-20T03:44:27.735Z,102345.87
2019-04-20T03:44:50.999Z,102346.67
2019-04-20T03:45:07.470Z,102347.96
2019-04-20T03:45:23.462Z,102348.46
2019-04-20T03:45:47.315Z,102347
2019-04-20T03:46:04.536Z,102347.01
2019-04-20T03:46:22.189Z,102347.16
2019-04-20T03:46:45.457Z,102349.75
2019-04-20T03:47:01.149Z,102348.31
2019-04-20T03:47:26.421Z,102345.88
2019-04-20T03:47:44.349Z,102343.28
2019-04-20T03:48:02.915Z,102346.37
2019-04-20T03:48:29.226Z,102348.47
2019-04-20T03:48:46.138Z,102350.73
2019-04-20T03:49:03.554Z,102347.02
2019-04-20T03:49:25.379Z,102348.82
2019-04-20T03:49:54.465Z,102344.64
2019-04-20T03:50:10.344Z,102346.23
2019-04-20T03:50:23.859Z,102348.03
2019-04-20T03:50:46.123Z,102346.24
2019-04-20T03:51:01.935Z,102348.5
2019-04-20T03:51:28.815Z,102350.6
2019-04-20T03:51:39.590Z,102345.75
2019-04-20T03:52:02.099Z,102347.35
2019-04-20T03:52:19.064Z,102355.78
2019-04-20T03:52:36.112Z,102350.44
2019-04-20T03:53:02.378Z,102344.12